Time;durP1;ratioP1;P1;durP2;ratioP2;P2;SDS_P1;SDS_P2;PMS_P1;PMS_P2;Temp;Humidity;BMP_temperature;BMP_pressure;BME280_temperature;BME280_humidity;BME280_pressure;Samples;Min_cycle;Max_cycle;Signal;HPM_P1;HPM_P2
2024/03/20 00:00:01;;;;;;;4.55;2.17;;;12.40;99.90;;;;;;5041561;28;20473;-31
2024/03/20 00:02:26;;;;;;;2.95;2.10;;;12.40;99.90;;;;;;5041753;28;20415;-33
2024/03/20 00:04:52;;;;;;;4.43;2.42;;;12.40;99.90;;;;;;5041432;28;20779;-34
2024/03/20 00:07:18;;;;;;;4.65;1.95;;;12.30;99.90;;;;;;5040782;28;20029;-33
2024/03/20 00:09:43;;;;;;;3.90;2.25;;;12.30;99.90;;;;;;5041535;28;20106;-34
2024/03/20 00:12:09;;;;;;;2.83;2.20;;;12.30;99.90;;;;;;5042411;28;20021;-32
2024/03/20 00:14:35;;;;;;;3.13;1.92;;;12.30;99.90;;;;;;5039415;28;20025;-33
2024/03/20 00:17:07;;;;;;;3.25;1.90;;;12.20;99.90;;;;;;5042073;28;20033;-31
2024/03/20 00:19:33;;;;;;;2.83;2.00;;;12.20;99.90;;;;;;5041282;28;20548;-34
2024/03/20 00:21:59;;;;;;;3.78;2.30;;;12.20;99.90;;;;;;5040984;28;20033;-32
2024/03/20 00:24:25;;;;;;;3.03;1.80;;;12.20;99.90;;;;;;5039929;28;20040;-34
2024/03/20 00:26:50;;;;;;;3.08;2.10;;;12.20;99.90;;;;;;5041616;28;20440;-35
2024/03/20 00:29:16;;;;;;;3.22;2.00;;;12.20;99.90;;;;;;5040852;28;20032;-31
2024/03/20 00:31:43;;;;;;;2.35;1.90;;;12.20;99.90;;;;;;5041756;28;20044;-34
2024/03/20 00:34:08;;;;;;;2.75;1.95;;;12.20;99.90;;;;;;5041136;28;20091;-36
2024/03/20 00:36:34;;;;;;;2.95;1.98;;;12.20;99.90;;;;;;5040553;28;20032;-36
2024/03/20 00:38:59;;;;;;;4.28;2.55;;;12.20;99.90;;;;;;5042176;28;20075;-35
2024/03/20 00:41:25;;;;;;;4.82;2.00;;;12.10;99.90;;;;;;5041125;28;20565;-35
2024/03/20 00:43:51;;;;;;;3.30;2.17;;;12.10;99.90;;;;;;5042015;28;20024;-35
2024/03/20 00:46:16;;;;;;;3.13;2.10;;;12.10;99.90;;;;;;5039245;28;20539;-34
2024/03/20 00:48:42;;;;;;;4.20;1.83;;;12.10;99.90;;;;;;5040862;28;20013;-35
2024/03/20 00:51:07;;;;;;;2.10;1.90;;;12.10;99.90;;;;;;5041415;28;20033;-32
2024/03/20 00:53:33;;;;;;;2.28;1.95;;;12.10;99.90;;;;;;5041759;28;20451;-34
2024/03/20 00:55:58;;;;;;;3.47;1.98;;;12.10;99.90;;;;;;5038999;28;20040;-33
2024/03/20 00:58:30;;;;;;;2.30;1.75;;;12.00;99.90;;;;;;5040209;28;20035;-36
2024/03/20 01:00:56;;;;;;;2.40;1.80;;;12.00;99.90;;;;;;5041357;28;20487;-35
2024/03/20 01:03:25;;;;;;;3.13;2.00;;;12.00;99.90;;;;;;5040063;28;20108;-35
2024/03/20 01:05:50;;;;;;;2.85;2.15;;;12.00;99.90;;;;;;5039579;28;20037;-36
2024/03/20 01:08:18;;;;;;;3.10;2.03;;;12.00;99.90;;;;;;5041007;28;20745;-32
2024/03/20 01:10:44;;;;;;;3.60;1.80;;;12.00;99.90;;;;;;5040275;28;20515;-36
2024/03/20 01:13:09;;;;;;;2.17;1.90;;;12.00;99.90;;;;;;5039997;28;20116;-34
2024/03/20 01:15:38;;;;;;;4.07;2.20;;;12.00;99.90;;;;;;5040148;28;20025;-33
2024/03/20 01:18:04;;;;;;;3.95;2.20;;;12.00;99.90;;;;;;5020014;28;20079;-36
2024/03/20 01:20:30;;;;;;;3.15;2.20;;;12.00;99.90;;;;;;5039153;28;20037;-30
2024/03/20 01:22:57;;;;;;;2.45;1.80;;;12.00;99.90;;;;;;5039932;28;20028;-33
2024/03/20 01:25:22;;;;;;;3.38;2.05;;;12.00;99.90;;;;;;5039580;28;20202;-37
2024/03/20 01:27:48;;;;;;;3.75;1.90;;;12.00;99.90;;;;;;5040865;28;20025;-36
2024/03/20 01:30:14;;;;;;;3.47;2.72;;;12.00;99.90;;;;;;5039264;28;20422;-33
2024/03/20 01:32:40;;;;;;;4.13;2.58;;;11.90;99.90;;;;;;5038436;28;20032;-34
2024/03/20 01:35:06;;;;;;;2.75;2.08;;;11.90;99.90;;;;;;5039712;28;20024;-35
2024/03/20 01:37:32;;;;;;;3.58;2.17;;;11.90;99.90;;;;;;5039758;28;20032;-32
2024/03/20 01:39:57;;;;;;;3.35;2.25;;;11.90;99.90;;;;;;5039933;28;20041;-30
2024/03/20 01:42:23;;;;;;;3.15;2.17;;;11.90;99.90;;;;;;5040200;28;20425;-34
2024/03/20 01:44:48;;;;;;;2.42;1.95;;;11.80;99.90;;;;;;5037520;28;20029;-31
2024/03/20 01:47:14;;;;;;;2.67;2.20;;;11.80;99.90;;;;;;5039498;28;20464;-35
2024/03/20 01:49:40;;;;;;;2.38;2.17;;;11.80;99.90;;;;;;5040126;28;20721;-32
2024/03/20 01:52:07;;;;;;;3.20;2.28;;;11.80;99.90;;;;;;5039560;28;20497;-31
2024/03/20 01:54:33;;;;;;;2.92;2.20;;;11.80;99.90;;;;;;5040038;28;20815;-36
2024/03/20 01:56:59;;;;;;;2.97;2.00;;;11.80;99.90;;;;;;5040093;28;20029;-31
2024/03/20 01:59:28;;;;;;;3.05;2.25;;;11.80;99.90;;;;;;5039432;28;20473;-34
2024/03/20 02:01:53;;;;;;;4.10;2.40;;;11.80;99.90;;;;;;5039907;28;20028;-32
2024/03/20 02:04:19;;;;;;;3.85;2.35;;;11.80;99.90;;;;;;5038852;28;20139;-33
2024/03/20 02:06:44;;;;;;;3.47;2.30;;;11.90;99.90;;;;;;5039369;28;20468;-34
2024/03/20 02:09:10;;;;;;;2.65;2.30;;;11.90;99.90;;;;;;5039641;28;20126;-31
2024/03/20 02:11:36;;;;;;;3.30;2.30;;;11.90;99.90;;;;;;5039460;28;20021;-31
2024/03/20 02:14:02;;;;;;;4.93;2.63;;;11.90;99.90;;;;;;5038783;28;20079;-33
2024/03/20 02:16:29;;;;;;;2.55;2.35;;;11.90;99.90;;;;;;5039166;28;20033;-34
2024/03/20 02:18:58;;;;;;;3.13;2.65;;;11.90;99.90;;;;;;5040551;28;20108;-33
2024/03/20 02:21:24;;;;;;;3.95;2.40;;;11.90;99.90;;;;;;5039882;28;20028;-33
2024/03/20 02:23:51;;;;;;;4.00;2.80;;;11.90;99.90;;;;;;5039836;28;20559;-35
2024/03/20 02:26:17;;;;;;;2.80;2.60;;;11.90;99.90;;;;;;5039539;28;20033;-31
2024/03/20 02:28:44;;;;;;;4.80;3.28;;;11.90;99.90;;;;;;5039328;28;20039;-34
2024/03/20 02:31:14;;;;;;;3.78;3.20;;;11.90;99.90;;;;;;5039073;28;20033;-33
2024/03/20 02:33:46;;;;;;;4.68;3.45;;;11.90;99.90;;;;;;5038145;28;20487;-31
2024/03/20 02:36:11;;;;;;;4.10;3.70;;;11.90;99.90;;;;;;5039522;28;20043;-35
2024/03/20 02:38:39;;;;;;;6.07;3.63;;;11.90;99.90;;;;;;5039644;28;20029;-33
2024/03/20 02:41:06;;;;;;;4.28;3.35;;;11.80;99.90;;;;;;5038693;28;20055;-39
2024/03/20 02:43:32;;;;;;;5.05;3.35;;;11.80;99.90;;;;;;5040296;28;20075;-36
2024/03/20 02:45:58;;;;;;;3.60;3.30;;;11.80;99.90;;;;;;5039250;28;20468;-33
2024/03/20 02:48:27;;;;;;;4.88;3.60;;;11.70;99.90;;;;;;5038659;28;20028;-34
2024/03/20 02:50:52;;;;;;;4.00;3.30;;;11.80;99.90;;;;;;5043543;28;20139;-33
2024/03/20 02:53:18;;;;;;;3.80;3.17;;;11.70;99.90;;;;;;5041199;28;20456;-37
2024/03/20 02:55:45;;;;;;;4.80;3.33;;;11.70;99.90;;;;;;5042047;28;20114;-33
2024/03/20 02:58:11;;;;;;;5.63;3.63;;;11.70;99.90;;;;;;5043607;28;20555;-35
2024/03/20 03:00:37;;;;;;;5.55;3.22;;;11.60;99.90;;;;;;5043097;28;20033;-33
2024/03/20 03:03:03;;;;;;;4.68;3.15;;;11.60;99.90;;;;;;5042856;28;20549;-34
2024/03/20 03:05:30;;;;;;;5.30;2.92;;;11.60;99.90;;;;;;5043126;28;20606;-34
2024/03/20 03:07:56;;;;;;;5.47;3.10;;;11.70;99.90;;;;;;5042974;28;20025;-37
2024/03/20 03:10:23;;;;;;;5.85;3.50;;;11.70;99.90;;;;;;5041410;28;20033;-36
2024/03/20 03:12:49;;;;;;;4.32;3.50;;;11.70;99.90;;;;;;5042402;28;20781;-34
2024/03/20 03:15:15;;;;;;;5.18;3.30;;;11.70;99.90;;;;;;5041367;28;20029;-38
2024/03/20 03:17:47;;;;;;;3.70;3.03;;;11.60;99.90;;;;;;5041730;28;20049;-32
2024/03/20 03:20:15;;;;;;;5.40;3.83;;;11.60;99.90;;;;;;5042090;28;20383;-35
2024/03/20 03:22:45;;;;;;;5.38;3.90;;;11.60;99.90;;;;;;5041824;28;20029;-34
2024/03/20 03:25:11;;;;;;;4.30;3.40;;;11.60;99.90;;;;;;5040546;28;20052;-37
2024/03/20 03:27:38;;;;;;;3.97;3.47;;;11.50;99.90;;;;;;5042362;28;20100;-34
2024/03/20 03:30:05;;;;;;;5.05;3.67;;;11.60;99.90;;;;;;5041718;28;20920;-34
2024/03/20 03:32:31;;;;;;;5.15;3.40;;;11.60;99.90;;;;;;5042444;28;20024;-34
2024/03/20 03:34:57;;;;;;;5.75;3.75;;;11.60;99.90;;;;;;5042068;28;20013;-34
2024/03/20 03:37:23;;;;;;;4.57;3.63;;;11.60;99.90;;;;;;5039273;28;20814;-33
2024/03/20 03:39:49;;;;;;;6.28;3.80;;;11.60;99.90;;;;;;5042063;28;20033;-29
2024/03/20 03:42:15;;;;;;;5.60;3.72;;;11.60;99.90;;;;;;5042589;28;20033;-32
2024/03/20 03:44:42;;;;;;;5.80;4.25;;;11.60;99.90;;;;;;5038920;28;20040;-35
2024/03/20 03:47:07;;;;;;;4.20;3.30;;;11.50;99.90;;;;;;5041255;28;20033;-32
2024/03/20 03:49:36;;;;;;;5.95;3.70;;;11.50;99.90;;;;;;5041568;28;20391;-35
2024/03/20 03:52:03;;;;;;;4.72;3.63;;;11.50;99.90;;;;;;5041414;28;20059;-35
2024/03/20 03:54:29;;;;;;;4.68;3.58;;;11.50;99.90;;;;;;5042320;28;20017;-35
2024/03/20 03:56:55;;;;;;;4.05;3.30;;;11.50;99.90;;;;;;5039411;28;20161;-34
2024/03/20 03:59:21;;;;;;;3.85;3.55;;;11.40;99.90;;;;;;5040986;28;20024;-34
2024/03/20 04:01:47;;;;;;;4.50;3.90;;;11.40;99.90;;;;;;5042367;28;20430;-35
2024/03/20 04:04:13;;;;;;;6.70;3.53;;;11.40;99.90;;;;;;5042169;28;20353;-39
2024/03/20 04:06:39;;;;;;;4.75;3.03;;;11.30;99.90;;;;;;5040183;28;20033;-35
2024/03/20 04:11:49;;;;;;;4.20;3.78;;;11.20;99.90;;;;;;5005625;28;20050;-87
2024/03/20 04:14:15;;;;;;;4.18;3.35;;;11.20;99.90;;;;;;5001779;28;20821;-87
2024/03/20 04:16:43;;;;;;;5.15;3.30;;;11.20;99.90;;;;;;4989851;28;20257;-87
2024/03/20 04:19:09;;;;;;;5.35;4.00;;;11.10;99.90;;;;;;5011962;28;20589;-87
2024/03/20 04:21:35;;;;;;;3.95;3.55;;;11.10;99.90;;;;;;4994305;28;20017;-88
2024/03/20 04:24:02;;;;;;;5.78;4.10;;;11.20;99.90;;;;;;5011206;28;20033;-88
2024/03/20 04:26:27;;;;;;;6.13;3.70;;;11.10;99.90;;;;;;5010005;28;20037;-86
2024/03/20 04:28:53;;;;;;;5.55;3.65;;;11.10;99.90;;;;;;5006420;28;20369;-87
2024/03/20 04:31:19;;;;;;;5.18;3.58;;;11.10;99.90;;;;;;5007517;28;20160;-87
2024/03/20 04:33:47;;;;;;;4.53;3.65;;;11.00;99.90;;;;;;5030359;28;20481;-88
2024/03/20 04:36:12;;;;;;;3.63;2.90;;;11.00;99.90;;;;;;5030010;28;20030;-87
2024/03/20 04:38:39;;;;;;;3.28;2.92;;;11.00;99.90;;;;;;5030175;28;20041;-85
2024/03/20 04:41:05;;;;;;;4.78;3.25;;;11.00;99.90;;;;;;5026522;28;20144;-85
2024/03/20 04:43:33;;;;;;;4.20;3.10;;;10.90;99.90;;;;;;5022244;28;20048;-84
2024/03/20 04:46:02;;;;;;;3.45;2.92;;;11.00;99.90;;;;;;5029844;28;20022;-85
2024/03/20 04:48:27;;;;;;;3.67;2.67;;;10.90;99.90;;;;;;5044088;28;20033;-88
2024/03/20 04:50:56;;;;;;;4.25;2.67;;;10.90;99.90;;;;;;5033444;28;20036;-88
2024/03/20 04:53:23;;;;;;;5.03;2.90;;;10.90;99.90;;;;;;5021001;28;20167;-85
2024/03/20 04:55:49;;;;;;;3.03;2.72;;;10.90;99.90;;;;;;5033609;28;20040;-88
2024/03/20 04:58:14;;;;;;;4.88;2.67;;;10.90;99.90;;;;;;5015093;28;20030;-87
2024/03/20 05:00:40;;;;;;;3.90;2.92;;;10.80;99.90;;;;;;5028546;28;20135;-89
2024/03/20 05:03:05;;;;;;;4.45;2.83;;;10.80;99.90;;;;;;5030266;28;20029;-87
2024/03/20 05:05:31;;;;;;;4.00;2.67;;;10.80;99.90;;;;;;5038409;28;20025;-85
2024/03/20 05:07:57;;;;;;;3.83;2.65;;;10.80;99.90;;;;;;5014979;28;20041;-87
2024/03/20 05:10:25;;;;;;;3.92;2.92;;;10.80;99.90;;;;;;5026658;28;20124;-85
2024/03/20 05:12:50;;;;;;;3.38;2.58;;;10.80;99.90;;;;;;5027485;28;20041;-86
2024/03/20 05:15:16;;;;;;;3.42;2.30;;;10.70;99.90;;;;;;5010214;28;20052;-85
2024/03/20 05:17:41;;;;;;;3.72;2.58;;;10.70;99.90;;;;;;5027097;28;20064;-86
2024/03/20 05:20:09;;;;;;;3.53;2.45;;;10.70;99.90;;;;;;5027205;28;20040;-84
2024/03/20 05:22:37;;;;;;;3.88;2.50;;;10.70;99.90;;;;;;5026273;28;20025;-84
2024/03/20 05:25:03;;;;;;;3.38;2.50;;;10.70;99.90;;;;;;5027180;28;20108;-83
2024/03/20 05:27:29;;;;;;;3.35;2.30;;;10.70;99.90;;;;;;5026481;28;20474;-85
2024/03/20 05:29:54;;;;;;;3.50;2.35;;;10.60;99.90;;;;;;5026640;28;20022;-86
2024/03/20 05:32:20;;;;;;;3.10;2.47;;;10.60;99.90;;;;;;5027269;28;20026;-86
2024/03/20 05:34:45;;;;;;;3.55;2.20;;;10.60;99.90;;;;;;5026683;28;20040;-85
2024/03/20 05:37:11;;;;;;;2.55;2.20;;;10.60;99.90;;;;;;5026167;28;20143;-87
2024/03/20 05:39:39;;;;;;;2.75;2.10;;;10.60;99.90;;;;;;5025562;28;20061;-84
2024/03/20 05:42:05;;;;;;;3.63;2.53;;;10.60;99.90;;;;;;5026072;28;20025;-85
2024/03/20 05:44:30;;;;;;;3.28;2.15;;;10.60;99.90;;;;;;5006455;28;20034;-84
2024/03/20 05:46:56;;;;;;;3.72;2.20;;;10.50;99.90;;;;;;5026332;28;20033;-83
2024/03/20 05:49:22;;;;;;;3.42;2.45;;;10.50;99.90;;;;;;5025969;28;20056;-85
2024/03/20 05:51:48;;;;;;;1.98;1.77;;;10.50;99.90;;;;;;5026205;28;20117;-84
2024/03/20 05:54:15;;;;;;;3.17;2.30;;;10.50;99.90;;;;;;5027528;28;20075;-88
2024/03/20 05:56:41;;;;;;;2.97;2.10;;;10.50;99.90;;;;;;5026530;28;20313;-86
2024/03/20 05:59:07;;;;;;;2.92;2.38;;;10.60;99.90;;;;;;5027560;28;20073;-84
2024/03/20 06:01:33;;;;;;;3.88;2.42;;;10.60;99.90;;;;;;5016770;28;20026;-85
2024/03/20 06:03:59;;;;;;;3.03;2.38;;;10.60;99.90;;;;;;5026200;28;20025;-86
2024/03/20 06:06:27;;;;;;;2.60;2.25;;;10.70;99.90;;;;;;5027168;28;20396;-85
2024/03/20 06:08:53;;;;;;;4.53;2.70;;;10.70;99.90;;;;;;5035012;28;20017;-86
2024/03/20 06:11:19;;;;;;;4.60;2.50;;;10.70;99.90;;;;;;5013845;28;20049;-87
2024/03/20 06:13:46;;;;;;;5.20;2.70;;;10.70;99.90;;;;;;5028212;28;20028;-85
2024/03/20 06:16:12;;;;;;;4.00;2.70;;;10.70;99.90;;;;;;5029113;28;20401;-86
2024/03/20 06:18:38;;;;;;;3.67;2.50;;;10.70;99.90;;;;;;5029285;28;20104;-86
2024/03/20 06:21:04;;;;;;;3.35;2.55;;;10.70;99.90;;;;;;5033558;28;20128;-90
2024/03/20 06:23:29;;;;;;;4.65;2.80;;;10.70;99.90;;;;;;5038994;28;20033;-85
2024/03/20 06:25:55;;;;;;;3.25;2.35;;;10.70;99.90;;;;;;5038885;28;20030;-87
2024/03/20 06:28:22;;;;;;;3.17;2.55;;;10.80;99.90;;;;;;5042931;28;20018;-86
2024/03/20 06:30:48;;;;;;;4.57;2.60;;;10.80;99.90;;;;;;5160467;22;20057;-32
2024/03/20 06:33:14;;;;;;;4.65;2.92;;;10.80;99.90;;;;;;5025229;28;20032;-37
2024/03/20 06:35:39;;;;;;;3.78;2.45;;;10.80;99.90;;;;;;5016814;28;20045;-34
2024/03/20 06:38:07;;;;;;;5.10;3.08;;;10.80;99.90;;;;;;5019010;28;20060;-34
2024/03/20 06:40:33;;;;;;;4.75;2.80;;;10.90;99.90;;;;;;5016641;28;20028;-34
2024/03/20 06:43:01;;;;;;;4.03;2.20;;;10.90;99.90;;;;;;5030528;28;20029;-32
2024/03/20 06:45:33;;;;;;;3.75;2.28;;;10.90;99.90;;;;;;5021719;28;20247;-30
2024/03/20 06:47:59;;;;;;;3.55;2.92;;;10.90;99.90;;;;;;5032166;28;20896;-32
2024/03/20 06:50:27;;;;;;;3.10;2.72;;;11.00;99.90;;;;;;5023199;28;20055;-30
2024/03/20 06:52:57;;;;;;;3.03;2.60;;;11.00;99.90;;;;;;5030854;28;20513;-33
2024/03/20 06:55:25;;;;;;;3.70;2.65;;;11.10;99.90;;;;;;5031120;28;20403;-31
2024/03/20 06:57:50;;;;;;;4.93;2.83;;;11.10;99.90;;;;;;5034350;28;20049;-34
2024/03/20 07:00:19;;;;;;;4.20;2.88;;;11.20;99.90;;;;;;5020926;28;20029;-35
2024/03/20 07:02:45;;;;;;;5.07;2.83;;;11.20;99.90;;;;;;5020251;28;20028;-36
2024/03/20 07:05:15;;;;;;;4.22;3.08;;;11.20;99.90;;;;;;5021500;28;20034;-35
2024/03/20 07:07:44;;;;;;;4.43;2.90;;;11.20;99.90;;;;;;5032194;28;20025;-32
2024/03/20 07:10:10;;;;;;;4.85;3.15;;;11.30;99.90;;;;;;5004873;28;20073;-32
2024/03/20 07:12:36;;;;;;;3.45;3.13;;;11.30;99.90;;;;;;5031018;28;20065;-34
2024/03/20 07:15:10;;;;;;;3.45;2.97;;;11.40;99.90;;;;;;5021609;28;20072;-35
2024/03/20 07:17:36;;;;;;;3.83;3.08;;;11.40;99.90;;;;;;5033597;28;20044;-35
2024/03/20 07:20:06;;;;;;;4.88;3.30;;;11.40;99.90;;;;;;5018875;28;20026;-35
2024/03/20 07:22:32;;;;;;;5.00;3.30;;;11.40;99.90;;;;;;5024127;28;20064;-30
2024/03/20 07:24:58;;;;;;;4.55;3.20;;;11.40;99.90;;;;;;5036966;28;20048;-36
2024/03/20 07:27:23;;;;;;;4.50;2.85;;;11.50;99.90;;;;;;5029072;28;20082;-34
2024/03/20 07:29:49;;;;;;;3.30;3.00;;;11.50;99.90;;;;;;5035139;28;20033;-35
2024/03/20 07:32:15;;;;;;;3.42;2.75;;;11.50;99.90;;;;;;5021233;28;20400;-33
2024/03/20 07:34:40;;;;;;;4.60;3.28;;;11.60;99.90;;;;;;5029871;28;20368;-34
2024/03/20 07:37:06;;;;;;;5.90;3.33;;;11.70;99.90;;;;;;5025716;28;20140;-36
2024/03/20 07:39:33;;;;;;;3.33;2.80;;;11.80;99.90;;;;;;5034099;28;20048;-39
2024/03/20 07:42:03;;;;;;;6.30;3.10;;;11.90;99.90;;;;;;5022745;28;20021;-35
2024/03/20 07:44:32;;;;;;;4.75;2.95;;;11.90;99.90;;;;;;5028523;28;20163;-37
2024/03/20 07:47:00;;;;;;;3.90;3.20;;;12.00;99.90;;;;;;5007509;28;20380;-33
2024/03/20 07:49:26;;;;;;;5.88;3.00;;;12.00;99.90;;;;;;5028457;28;20017;-35
2024/03/20 07:51:53;;;;;;;5.55;3.30;;;12.10;99.90;;;;;;5026061;28;20687;-33
2024/03/20 07:54:24;;;;;;;3.38;3.08;;;12.10;99.90;;;;;;5025025;28;20032;-33
2024/03/20 07:56:51;;;;;;;4.82;3.22;;;12.20;99.90;;;;;;5022171;28;20552;-32
2024/03/20 07:59:17;;;;;;;3.92;3.17;;;12.30;99.90;;;;;;5024457;28;20025;-34
2024/03/20 08:01:43;;;;;;;5.20;3.15;;;12.30;99.90;;;;;;5043142;28;20029;-34
2024/03/20 08:04:09;;;;;;;4.68;3.22;;;12.40;99.90;;;;;;5029993;28;20052;-33
2024/03/20 08:06:40;;;;;;;3.92;3.10;;;12.50;99.90;;;;;;5032596;28;20049;-35
2024/03/20 08:09:06;;;;;;;5.32;3.03;;;12.60;99.90;;;;;;5016827;28;20033;-33
2024/03/20 08:11:33;;;;;;;6.15;3.47;;;12.60;99.90;;;;;;5014830;28;20369;-34
2024/03/20 08:13:59;;;;;;;4.57;3.42;;;12.70;99.90;;;;;;5023639;28;20036;-35
2024/03/20 08:16:26;;;;;;;4.47;3.20;;;12.70;99.90;;;;;;5024356;28;20073;-32
2024/03/20 08:18:51;;;;;;;3.97;3.05;;;12.80;99.90;;;;;;5024435;28;20017;-36
2024/03/20 08:21:17;;;;;;;4.13;3.17;;;12.80;99.90;;;;;;5028263;28;20033;-37
2024/03/20 08:23:43;;;;;;;3.88;3.28;;;12.90;99.90;;;;;;5022729;28;20479;-33
2024/03/20 08:26:09;;;;;;;4.30;3.33;;;12.90;99.90;;;;;;5030512;28;20037;-35
2024/03/20 08:28:35;;;;;;;3.80;3.45;;;13.00;99.90;;;;;;5022111;28;20051;-35
2024/03/20 08:31:04;;;;;;;3.78;3.40;;;13.00;99.90;;;;;;5031878;28;20494;-34
2024/03/20 08:33:30;;;;;;;5.28;4.20;;;13.10;99.90;;;;;;5023154;28;20056;-34
2024/03/20 08:35:58;;;;;;;5.75;4.40;;;13.10;99.90;;;;;;5032488;28;20141;-32
2024/03/20 08:38:24;;;;;;;6.70;4.65;;;13.20;99.90;;;;;;5020637;28;20021;-32
2024/03/20 08:40:50;;;;;;;7.82;4.82;;;13.20;99.90;;;;;;5034765;28;20039;-33
2024/03/20 08:43:15;;;;;;;4.88;3.78;;;13.30;99.90;;;;;;5021269;28;20435;-30
2024/03/20 08:45:41;;;;;;;6.85;4.40;;;13.30;99.90;;;;;;5032145;28;20072;-34
2024/03/20 08:48:07;;;;;;;5.13;4.63;;;13.40;99.90;;;;;;5021478;28;20464;-30
2024/03/20 08:50:34;;;;;;;5.95;4.75;;;13.40;99.90;;;;;;5031084;28;20110;-33
2024/03/20 08:53:02;;;;;;;5.57;5.00;;;13.50;99.90;;;;;;5022765;28;20034;-34
2024/03/20 08:55:30;;;;;;;6.93;5.22;;;13.50;99.90;;;;;;5028237;28;20037;-32
2024/03/20 08:57:56;;;;;;;6.78;5.03;;;13.60;99.90;;;;;;5024787;28;20018;-39
2024/03/20 09:00:22;;;;;;;7.38;5.25;;;13.70;99.90;;;;;;5026359;28;20083;-32
2024/03/20 09:02:47;;;;;;;6.55;5.22;;;13.70;99.90;;;;;;5027633;28;20022;-34
2024/03/20 09:05:13;;;;;;;5.90;5.20;;;13.80;99.90;;;;;;5024008;28;20029;-35
2024/03/20 09:07:40;;;;;;;7.85;5.55;;;13.90;99.90;;;;;;5029201;28;20029;-36
2024/03/20 09:10:06;;;;;;;7.18;5.40;;;14.00;99.90;;;;;;5022462;28;20025;-33
2024/03/20 09:12:34;;;;;;;6.80;5.63;;;14.10;99.90;;;;;;5032313;28;20022;-32
2024/03/20 09:15:00;;;;;;;6.10;5.50;;;14.10;99.90;;;;;;5022867;28;20057;-36
2024/03/20 09:17:25;;;;;;;6.95;5.63;;;14.20;99.90;;;;;;5031888;28;20118;-32
2024/03/20 09:19:51;;;;;;;7.43;5.78;;;14.20;99.90;;;;;;5020809;28;20053;-33
2024/03/20 09:22:16;;;;;;;8.00;5.90;;;14.30;99.90;;;;;;5032982;28;20072;-36
2024/03/20 09:24:42;;;;;;;6.63;5.55;;;14.30;99.90;;;;;;5020687;28;20495;-30
2024/03/20 09:27:08;;;;;;;7.15;5.40;;;14.40;99.90;;;;;;5032083;28;20223;-35
2024/03/20 09:29:34;;;;;;;6.78;5.82;;;14.40;99.90;;;;;;5018745;28;20025;-35
2024/03/20 09:31:59;;;;;;;6.88;5.70;;;14.50;99.90;;;;;;5030838;28;20045;-33
2024/03/20 09:34:26;;;;;;;6.30;5.60;;;14.50;99.90;;;;;;5020756;28;20033;-35
2024/03/20 09:36:55;;;;;;;7.70;5.28;;;14.60;99.90;;;;;;5028543;28;20032;-34
2024/03/20 09:39:21;;;;;;;7.40;5.90;;;14.70;99.90;;;;;;5023411;28;20098;-36
2024/03/20 09:41:47;;;;;;;5.65;5.10;;;14.70;99.90;;;;;;5026059;28;20143;-34
2024/03/20 09:44:15;;;;;;;9.82;8.10;;;14.80;99.90;;;;;;5025889;28;20029;-32
2024/03/20 09:46:41;;;;;;;7.75;6.13;;;14.80;99.90;;;;;;5023984;28;20041;-36
2024/03/20 09:49:08;;;;;;;8.43;7.22;;;14.80;99.90;;;;;;5028121;28;20029;-32
2024/03/20 09:51:35;;;;;;;7.90;6.15;;;14.90;99.90;;;;;;5021943;28;20554;-30
2024/03/20 09:54:01;;;;;;;7.43;6.30;;;14.90;99.90;;;;;;5031399;28;20079;-35
2024/03/20 09:56:28;;;;;;;6.47;5.78;;;15.00;99.90;;;;;;5021056;28;20020;-33
2024/03/20 09:58:54;;;;;;;8.52;7.25;;;15.00;99.90;;;;;;5032089;28;20064;-34
2024/03/20 10:01:21;;;;;;;10.07;7.65;;;15.10;99.90;;;;;;5021513;28;20132;-33
2024/03/20 10:03:53;;;;;;;9.45;6.88;;;15.10;99.90;;;;;;5032364;28;20100;-36
2024/03/20 10:06:20;;;;;;;7.30;6.55;;;15.20;99.90;;;;;;5020297;28;20048;-33
2024/03/20 10:08:46;;;;;;;8.77;6.47;;;15.20;99.90;;;;;;5032714;28;20026;-32
2024/03/20 10:11:13;;;;;;;6.85;6.15;;;15.30;99.90;;;;;;5020169;28;20041;-32
2024/03/20 10:13:42;;;;;;;6.45;5.72;;;15.30;99.90;;;;;;5032299;28;20162;-35
2024/03/20 10:16:12;;;;;;;9.65;6.75;;;15.40;99.90;;;;;;5020422;28;20034;-36
2024/03/20 10:18:38;;;;;;;7.75;6.18;;;15.40;99.90;;;;;;5031411;28;20029;-35
2024/03/20 10:21:07;;;;;;;8.23;7.30;;;15.50;99.90;;;;;;5020628;28;20025;-39
2024/03/20 10:23:41;;;;;;;7.20;6.22;;;15.50;99.90;;;;;;5028582;28;20383;-36
2024/03/20 10:26:10;;;;;;;8.50;6.00;;;15.60;99.90;;;;;;5021504;28;20115;-36
2024/03/20 10:28:38;;;;;;;7.63;5.22;;;15.60;99.90;;;;;;5028836;28;20017;-35
2024/03/20 10:31:10;;;;;;;7.50;5.80;;;15.70;99.90;;;;;;5022498;28;20128;-33
2024/03/20 10:33:38;;;;;;;6.57;5.40;;;15.70;99.90;;;;;;5026596;28;20570;-35
2024/03/20 10:36:08;;;;;;;6.40;5.28;;;15.70;99.90;;;;;;5025728;28;20091;-33
2024/03/20 10:38:35;;;;;;;6.60;6.00;;;15.80;99.90;;;;;;5024651;28;20017;-30
2024/03/20 10:41:06;;;;;;;7.05;5.15;;;15.80;99.90;;;;;;5027430;28;20540;-34
2024/03/20 10:43:34;;;;;;;8.00;5.85;;;15.90;99.90;;;;;;5022669;28;20515;-31
2024/03/20 10:46:00;;;;;;;6.78;5.20;;;15.90;99.90;;;;;;5028303;28;20040;-34
2024/03/20 10:48:26;;;;;;;8.63;5.68;;;15.90;99.90;;;;;;5021575;28;20025;-33
2024/03/20 10:50:53;;;;;;;7.60;5.35;;;15.90;99.90;;;;;;5031568;28;20017;-34
2024/03/20 10:53:24;;;;;;;6.78;5.07;;;16.00;99.90;;;;;;5021097;28;20800;-31
2024/03/20 10:55:52;;;;;;;9.18;6.18;;;16.00;99.90;;;;;;5031384;28;20029;-34
2024/03/20 10:58:18;;;;;;;8.45;6.32;;;16.10;99.90;;;;;;5021144;28;20029;-32
2024/03/20 11:00:51;;;;;;;5.70;5.03;;;16.10;99.90;;;;;;5030437;28;20037;-36
2024/03/20 11:03:39;;;;;;;5.65;5.05;;;16.10;99.90;;;;;;5020138;28;20037;-32
2024/03/20 11:06:30;;;;;;;7.22;4.80;;;16.10;99.90;;;;;;5030092;28;20046;-32
2024/03/20 11:09:06;;;;;;;5.32;4.82;;;16.20;99.90;;;;;;5021788;28;20040;-35
2024/03/20 11:11:31;;;;;;;6.80;5.10;;;16.20;99.90;;;;;;5033991;28;20342;-33
2024/03/20 11:14:03;;;;;;;5.85;5.28;;;16.20;99.90;;;;;;5023827;28;20494;-30
2024/03/20 11:16:30;;;;;;;6.10;5.50;;;16.30;99.90;;;;;;5033880;28;20034;-32
2024/03/20 11:19:09;;;;;;;5.88;5.22;;;16.30;99.90;;;;;;5023350;28;20113;-30
2024/03/20 11:21:35;;;;;;;7.60;5.47;;;16.40;99.90;;;;;;5030608;28;20029;-37
2024/03/20 11:24:01;;;;;;;6.53;5.00;;;16.50;99.90;;;;;;5023006;28;20084;-34
2024/03/20 11:26:27;;;;;;;6.00;4.90;;;16.50;99.90;;;;;;5028491;28;20353;-35
2024/03/20 11:28:52;;;;;;;8.77;5.65;;;16.60;99.90;;;;;;5042454;28;20117;-35
2024/03/20 11:31:18;;;;;;;7.43;5.88;;;16.70;99.90;;;;;;5029443;28;20072;-34
2024/03/20 11:33:44;;;;;;;6.32;4.93;;;16.70;99.90;;;;;;5041541;28;20040;-35
2024/03/20 11:36:18;;;;;;;5.70;4.78;;;16.80;99.90;;;;;;5031034;28;20033;-32
2024/03/20 11:38:44;;;;;;;5.53;4.53;;;16.90;99.90;;;;;;5042355;28;20727;-32
2024/03/20 11:41:10;;;;;;;7.22;4.53;;;17.00;99.90;;;;;;5031528;28;20484;-35
2024/03/20 11:43:44;;;;;;;6.85;4.75;;;17.10;99.90;;;;;;5039257;28;20017;-31
2024/03/20 11:46:23;;;;;;;5.53;4.65;;;17.10;99.90;;;;;;5033740;28;20034;-33
2024/03/20 11:48:52;;;;;;;5.80;4.40;;;17.20;99.90;;;;;;5038936;28;20498;-33
2024/03/20 11:51:22;;;;;;;6.18;4.70;;;17.20;99.90;;;;;;5033789;28;20029;-35
2024/03/20 11:53:54;;;;;;;6.53;4.80;;;17.30;99.90;;;;;;5038511;28;20029;-30
2024/03/20 11:56:22;;;;;;;5.88;4.53;;;17.40;99.90;;;;;;5034082;28;20064;-32
2024/03/20 11:58:53;;;;;;;5.00;3.95;;;17.50;99.90;;;;;;5036320;28;20029;-33
2024/03/20 12:01:19;;;;;;;5.25;4.65;;;17.60;99.90;;;;;;5035783;28;20120;-32
2024/03/20 12:03:48;;;;;;;5.82;3.80;;;17.60;99.90;;;;;;5034471;28;20025;-34
2024/03/20 12:06:22;;;;;;;6.65;4.30;;;17.60;99.90;;;;;;5038351;28;20029;-33
2024/03/20 12:08:48;;;;;;;4.35;3.80;;;17.60;99.90;;;;;;5033493;28;20021;-32
2024/03/20 12:11:14;;;;;;;4.43;3.65;;;17.60;99.90;;;;;;5040205;28;20122;-36
2024/03/20 12:13:41;;;;;;;4.38;3.83;;;17.70;99.90;;;;;;5031354;28;20468;-30
2024/03/20 12:16:07;;;;;;;4.53;4.05;;;17.70;99.90;;;;;;5040196;28;20096;-34
2024/03/20 12:18:34;;;;;;;5.47;4.70;;;17.80;99.90;;;;;;5030282;28;20452;-30
2024/03/20 12:21:00;;;;;;;5.28;4.03;;;17.80;99.90;;;;;;5041524;28;20495;-32
2024/03/20 12:23:26;;;;;;;4.80;4.00;;;17.80;99.90;;;;;;5029276;28;20040;-31
2024/03/20 12:25:52;;;;;;;4.43;3.50;;;17.90;99.90;;;;;;5042584;28;20040;-32
2024/03/20 12:28:17;;;;;;;3.90;3.22;;;18.00;99.90;;;;;;5028946;28;20033;-31
2024/03/20 12:30:43;;;;;;;3.88;3.13;;;18.10;99.90;;;;;;5030011;28;20511;-33
2024/03/20 12:33:09;;;;;;;3.72;3.42;;;18.10;99.90;;;;;;5033246;28;20535;-35
2024/03/20 12:35:35;;;;;;;4.35;3.40;;;18.20;99.90;;;;;;5021452;28;20026;-35
2024/03/20 12:38:01;;;;;;;5.35;4.28;;;18.30;99.90;;;;;;5030511;28;20021;-34
2024/03/20 12:40:27;;;;;;;3.80;3.45;;;18.30;99.90;;;;;;5023571;28;20045;-32
2024/03/20 12:42:53;;;;;;;3.97;3.50;;;18.30;99.90;;;;;;5027784;28;20678;-37
2024/03/20 12:45:19;;;;;;;4.50;3.65;;;18.40;99.90;;;;;;5026122;28;20755;-32
2024/03/20 12:47:47;;;;;;;5.43;4.30;;;18.40;99.90;;;;;;5024669;28;20047;-34